sensor_id;sensor_type;location;lat;lon;timestamp;pressure;altitude;pressure_sealevel;temperature
20092;BMP180;10205;49.678;6.560;2023-02-15T00:01:51;101302.00;;;6.00
20092;BMP180;10205;49.678;6.560;2023-02-15T00:04:22;101287.00;;;5.90
20092;BMP180;10205;49.678;6.560;2023-02-15T00:06:50;101300.00;;;5.90
20092;BMP180;10205;49.678;6.560;2023-02-15T00:09:17;101306.00;;;5.90
20092;BMP180;10205;49.678;6.560;2023-02-15T00:11:45;101285.00;;;5.90
20092;BMP180;10205;49.678;6.560;2023-02-15T00:14:19;101297.00;;;5.90
20092;BMP180;10205;49.678;6.560;2023-02-15T00:16:47;101294.00;;;5.90
20092;BMP180;10205;49.678;6.560;2023-02-15T00:19:17;101290.00;;;5.80
20092;BMP180;10205;49.678;6.560;2023-02-15T00:21:48;101283.00;;;5.80
20092;BMP180;10205;49.678;6.560;2023-02-15T00:24:18;101270.00;;;5.80
20092;BMP180;10205;49.678;6.560;2023-02-15T00:26:47;101277.00;;;5.80
20092;BMP180;10205;49.678;6.560;2023-02-15T00:29:18;101279.00;;;5.80
20092;BMP180;10205;49.678;6.560;2023-02-15T00:31:46;101290.00;;;5.70
20092;BMP180;10205;49.678;6.560;2023-02-15T00:34:29;101288.00;;;5.70
20092;BMP180;10205;49.678;6.560;2023-02-15T00:36:56;101273.00;;;5.70
20092;BMP180;10205;49.678;6.560;2023-02-15T00:39:23;101287.00;;;5.70
20092;BMP180;10205;49.678;6.560;2023-02-15T00:41:51;101277.00;;;5.70
20092;BMP180;10205;49.678;6.560;2023-02-15T00:44:19;101273.00;;;5.60
20092;BMP180;10205;49.678;6.560;2023-02-15T00:46:46;101278.00;;;5.60
20092;BMP180;10205;49.678;6.560;2023-02-15T00:49:13;101287.00;;;5.60
20092;BMP180;10205;49.678;6.560;2023-02-15T00:51:40;101282.00;;;5.60
20092;BMP180;10205;49.678;6.560;2023-02-15T00:54:07;101279.00;;;5.60
20092;BMP180;10205;49.678;6.560;2023-02-15T00:56:35;101272.00;;;5.50
20092;BMP180;10205;49.678;6.560;2023-02-15T00:59:07;101273.00;;;5.50
20092;BMP180;10205;49.678;6.560;2023-02-15T01:01:36;101270.00;;;5.50
20092;BMP180;10205;49.678;6.560;2023-02-15T01:04:03;101270.00;;;5.50
20092;BMP180;10205;49.678;6.560;2023-02-15T01:06:30;101277.00;;;5.50
20092;BMP180;10205;49.678;6.560;2023-02-15T01:08:57;101276.00;;;5.40
20092;BMP180;10205;49.678;6.560;2023-02-15T01:11:24;101264.00;;;5.40
20092;BMP180;10205;49.678;6.560;2023-02-15T01:13:57;101263.00;;;5.30
20092;BMP180;10205;49.678;6.560;2023-02-15T01:16:27;101269.00;;;5.30
20092;BMP180;10205;49.678;6.560;2023-02-15T01:18:56;101263.00;;;5.30
20092;BMP180;10205;49.678;6.560;2023-02-15T01:21:25;101257.00;;;5.30
20092;BMP180;10205;49.678;6.560;2023-02-15T01:23:53;101255.00;;;5.20
20092;BMP180;10205;49.678;6.560;2023-02-15T01:26:21;101264.00;;;5.20
20092;BMP180;10205;49.678;6.560;2023-02-15T01:28:48;101265.00;;;5.20
20092;BMP180;10205;49.678;6.560;2023-02-15T01:31:18;101283.00;;;5.20
20092;BMP180;10205;49.678;6.560;2023-02-15T01:33:47;101263.00;;;5.10
20092;BMP180;10205;49.678;6.560;2023-02-15T01:36:16;101267.00;;;5.10
20092;BMP180;10205;49.678;6.560;2023-02-15T01:38:43;101266.00;;;5.10
20092;BMP180;10205;49.678;6.560;2023-02-15T01:41:10;101261.00;;;5.10
20092;BMP180;10205;49.678;6.560;2023-02-15T01:43:56;101249.00;;;5.00
20092;BMP180;10205;49.678;6.560;2023-02-15T01:46:33;101253.00;;;5.00
20092;BMP180;10205;49.678;6.560;2023-02-15T01:49:08;101247.00;;;5.00
20092;BMP180;10205;49.678;6.560;2023-02-15T01:51:42;101239.00;;;5.00
20092;BMP180;10205;49.678;6.560;2023-02-15T01:54:19;101249.00;;;5.00
20092;BMP180;10205;49.678;6.560;2023-02-15T01:56:54;101244.00;;;5.00
20092;BMP180;10205;49.678;6.560;2023-02-15T01:59:24;101255.00;;;4.90
20092;BMP180;10205;49.678;6.560;2023-02-15T02:01:58;101239.00;;;4.90
20092;BMP180;10205;49.678;6.560;2023-02-15T02:04:38;101225.00;;;4.90
20092;BMP180;10205;49.678;6.560;2023-02-15T02:07:09;101236.00;;;4.90
20092;BMP180;10205;49.678;6.560;2023-02-15T02:09:39;101228.00;;;4.90
20092;BMP180;10205;49.678;6.560;2023-02-15T02:12:09;101225.00;;;4.90
20092;BMP180;10205;49.678;6.560;2023-02-15T02:14:38;101225.00;;;4.80
20092;BMP180;10205;49.678;6.560;2023-02-15T02:17:15;101234.00;;;4.90
20092;BMP180;10205;49.678;6.560;2023-02-15T02:23:24;101222.00;;;4.80
20092;BMP180;10205;49.678;6.560;2023-02-15T02:33:07;101220.00;;;4.70
20092;BMP180;10205;49.678;6.560;2023-02-15T02:35:44;101222.00;;;4.70
20092;BMP180;10205;49.678;6.560;2023-02-15T02:38:26;101214.00;;;4.70
20092;BMP180;10205;49.678;6.560;2023-02-15T02:41:07;101214.00;;;4.70
20092;BMP180;10205;49.678;6.560;2023-02-15T02:43:46;101212.00;;;4.70
20092;BMP180;10205;49.678;6.560;2023-02-15T02:46:27;101201.00;;;4.70
20092;BMP180;10205;49.678;6.560;2023-02-15T02:48:57;101202.00;;;4.70
20092;BMP180;10205;49.678;6.560;2023-02-15T02:51:24;101206.00;;;4.70
20092;BMP180;10205;49.678;6.560;2023-02-15T02:53:55;101196.00;;;4.70
20092;BMP180;10205;49.678;6.560;2023-02-15T02:56:30;101192.00;;;4.70
20092;BMP180;10205;49.678;6.560;2023-02-15T02:59:05;101195.00;;;4.70
20092;BMP180;10205;49.678;6.560;2023-02-15T03:01:42;101206.00;;;4.80
20092;BMP180;10205;49.678;6.560;2023-02-15T03:04:17;101183.00;;;4.80
20092;BMP180;10205;49.678;6.560;2023-02-15T03:06:53;101179.00;;;4.80
20092;BMP180;10205;49.678;6.560;2023-02-15T03:09:26;101178.00;;;4.70
20092;BMP180;10205;49.678;6.560;2023-02-15T03:12:00;101179.00;;;4.80
20092;BMP180;10205;49.678;6.560;2023-02-15T03:14:30;101178.00;;;4.80
20092;BMP180;10205;49.678;6.560;2023-02-15T03:16:58;101177.00;;;4.80
20092;BMP180;10205;49.678;6.560;2023-02-15T03:19:30;101171.00;;;4.80
20092;BMP180;10205;49.678;6.560;2023-02-15T03:22:04;101177.00;;;4.80
20092;BMP180;10205;49.678;6.560;2023-02-15T03:24:37;101169.00;;;4.70
20092;BMP180;10205;49.678;6.560;2023-02-15T03:27:14;101172.00;;;4.80
20092;BMP180;10205;49.678;6.560;2023-02-15T03:29:45;101176.00;;;4.70
20092;BMP180;10205;49.678;6.560;2023-02-15T03:32:15;101176.00;;;4.70
20092;BMP180;10205;49.678;6.560;2023-02-15T03:34:44;101175.00;;;4.80
20092;BMP180;10205;49.678;6.560;2023-02-15T03:37:21;101174.00;;;4.80
20092;BMP180;10205;49.678;6.560;2023-02-15T03:39:56;101171.00;;;4.70
20092;BMP180;10205;49.678;6.560;2023-02-15T03:42:53;101172.00;;;4.80
20092;BMP180;10205;49.678;6.560;2023-02-15T03:45:27;101174.00;;;4.70
20092;BMP180;10205;49.678;6.560;2023-02-15T03:47:58;101176.00;;;4.70
20092;BMP180;10205;49.678;6.560;2023-02-15T03:50:31;101187.00;;;4.70
20092;BMP180;10205;49.678;6.560;2023-02-15T03:53:21;101183.00;;;4.80
20092;BMP180;10205;49.678;6.560;2023-02-15T03:55:52;101183.00;;;4.80
20092;BMP180;10205;49.678;6.560;2023-02-15T03:58:20;101186.00;;;4.70
20092;BMP180;10205;49.678;6.560;2023-02-15T04:01:13;101198.00;;;4.80
20092;BMP180;10205;49.678;6.560;2023-02-15T04:04:10;101172.00;;;4.80
20092;BMP180;10205;49.678;6.560;2023-02-15T04:06:39;101179.00;;;4.80
20092;BMP180;10205;49.678;6.560;2023-02-15T04:09:05;101188.00;;;4.80
20092;BMP180;10205;49.678;6.560;2023-02-15T04:11:50;101192.00;;;4.80
20092;BMP180;10205;49.678;6.560;2023-02-15T04:14:20;101183.00;;;4.80
20092;BMP180;10205;49.678;6.560;2023-02-15T04:17:05;101177.00;;;4.80
20092;BMP180;10205;49.678;6.560;2023-02-15T04:19:32;101183.00;;;4.80
20092;BMP180;10205;49.678;6.560;2023-02-15T04:22:18;101184.00;;;4.80
20092;BMP180;10205;49.678;6.560;2023-02-15T04:25:04;101181.00;;;4.80
20092;BMP180;10205;49.678;6.560;2023-02-15T04:27:42;101186.00;;;4.80
20092;BMP180;10205;49.678;6.560;2023-02-15T04:30:12;101181.00;;;4.80
20092;BMP180;10205;49.678;6.560;2023-02-15T04:32:39;101184.00;;;4.80
20092;BMP180;10205;49.678;6.560;2023-02-15T04:35:07;101172.00;;;4.80
20092;BMP180;10205;49.678;6.560;2023-02-15T04:37:36;101171.00;;;4.80
20092;BMP180;10205;49.678;6.560;2023-02-15T04:40:04;101174.00;;;4.80
20092;BMP180;10205;49.678;6.560;2023-02-15T04:42:32;101186.00;;;4.80
20092;BMP180;10205;49.678;6.560;2023-02-15T04:44:59;101176.00;;;4.80
20092;BMP180;10205;49.678;6.560;2023-02-15T04:47:27;101171.00;;;4.80
20092;BMP180;10205;49.678;6.560;2023-02-15T04:49:54;101188.00;;;4.80
20092;BMP180;10205;49.678;6.560;2023-02-15T04:52:21;101182.00;;;4.80
20092;BMP180;10205;49.678;6.560;2023-02-15T04:54:49;101183.00;;;4.80
20092;BMP180;10205;49.678;6.560;2023-02-15T04:57:16;101183.00;;;4.80
20092;BMP180;10205;49.678;6.560;2023-02-15T04:59:44;101203.00;;;4.80
20092;BMP180;10205;49.678;6.560;2023-02-15T05:02:13;101192.00;;;4.80
20092;BMP180;10205;49.678;6.560;2023-02-15T05:04:40;101200.00;;;4.90
20092;BMP180;10205;49.678;6.560;2023-02-15T05:07:07;101195.00;;;4.90
20092;BMP180;10205;49.678;6.560;2023-02-15T05:09:34;101208.00;;;4.90
20092;BMP180;10205;49.678;6.560;2023-02-15T05:12:03;101193.00;;;4.90
20092;BMP180;10205;49.678;6.560;2023-02-15T05:14:31;101191.00;;;4.80
20092;BMP180;10205;49.678;6.560;2023-02-15T05:17:01;101193.00;;;4.90
20092;BMP180;10205;49.678;6.560;2023-02-15T05:19:29;101193.00;;;4.90
20092;BMP180;10205;49.678;6.560;2023-02-15T05:21:56;101206.00;;;4.90
20092;BMP180;10205;49.678;6.560;2023-02-15T05:24:23;101200.00;;;4.90
20092;BMP180;10205;49.678;6.560;2023-02-15T05:27:11;101201.00;;;4.90
20092;BMP180;10205;49.678;6.560;2023-02-15T05:29:55;101192.00;;;4.90
20092;BMP180;10205;49.678;6.560;2023-02-15T05:32:22;101201.00;;;4.90
20092;BMP180;10205;49.678;6.560;2023-02-15T05:34:52;101200.00;;;4.90
20092;BMP180;10205;49.678;6.560;2023-02-15T05:37:19;101189.00;;;4.90
20092;BMP180;10205;49.678;6.560;2023-02-15T05:39:46;101193.00;;;4.90
20092;BMP180;10205;49.678;6.560;2023-02-15T05:42:19;101197.00;;;4.90
20092;BMP180;10205;49.678;6.560;2023-02-15T05:44:48;101197.00;;;4.90
20092;BMP180;10205;49.678;6.560;2023-02-15T05:47:15;101198.00;;;4.90
20092;BMP180;10205;49.678;6.560;2023-02-15T05:49:42;101190.00;;;4.90
20092;BMP180;10205;49.678;6.560;2023-02-15T05:52:09;101194.00;;;4.90
20092;BMP180;10205;49.678;6.560;2023-02-15T05:54:40;101200.00;;;4.90
20092;BMP180;10205;49.678;6.560;2023-02-15T05:57:07;101194.00;;;4.90
20092;BMP180;10205;49.678;6.560;2023-02-15T05:59:35;101199.00;;;4.90
20092;BMP180;10205;49.678;6.560;2023-02-15T06:02:02;101193.00;;;4.90
20092;BMP180;10205;49.678;6.560;2023-02-15T06:04:31;101200.00;;;4.90
20092;BMP180;10205;49.678;6.560;2023-02-15T06:06:58;101210.00;;;4.90
20092;BMP180;10205;49.678;6.560;2023-02-15T06:09:25;101200.00;;;4.90
20092;BMP180;10205;49.678;6.560;2023-02-15T06:11:52;101202.00;;;4.90
20092;BMP180;10205;49.678;6.560;2023-02-15T06:14:20;101200.00;;;4.90
20092;BMP180;10205;49.678;6.560;2023-02-15T06:16:49;101220.00;;;4.90
20092;BMP180;10205;49.678;6.560;2023-02-15T06:19:16;101200.00;;;4.90
20092;BMP180;10205;49.678;6.560;2023-02-15T06:21:43;101213.00;;;4.90
20092;BMP180;10205;49.678;6.560;2023-02-15T06:24:11;101213.00;;;4.90
20092;BMP180;10205;49.678;6.560;2023-02-15T06:26:39;101217.00;;;4.90
20092;BMP180;10205;49.678;6.560;2023-02-15T06:29:06;101213.00;;;4.90
20092;BMP180;10205;49.678;6.560;2023-02-15T06:31:34;101218.00;;;4.90
20092;BMP180;10205;49.678;6.560;2023-02-15T06:34:02;101227.00;;;4.90
20092;BMP180;10205;49.678;6.560;2023-02-15T06:36:30;101223.00;;;4.90
20092;BMP180;10205;49.678;6.560;2023-02-15T06:38:57;101217.00;;;4.90
20092;BMP180;10205;49.678;6.560;2023-02-15T06:41:25;101218.00;;;4.90
20092;BMP180;10205;49.678;6.560;2023-02-15T06:43:52;101217.00;;;4.90
20092;BMP180;10205;49.678;6.560;2023-02-15T06:46:19;101218.00;;;4.90
20092;BMP180;10205;49.678;6.560;2023-02-15T06:48:46;101208.00;;;4.90
20092;BMP180;10205;49.678;6.560;2023-02-15T06:51:15;101206.00;;;4.90
20092;BMP180;10205;49.678;6.560;2023-02-15T06:53:42;101214.00;;;4.90
20092;BMP180;10205;49.678;6.560;2023-02-15T06:56:10;101203.00;;;4.90
20092;BMP180;10205;49.678;6.560;2023-02-15T06:58:40;101190.00;;;4.90
20092;BMP180;10205;49.678;6.560;2023-02-15T07:01:09;101194.00;;;4.90
20092;BMP180;10205;49.678;6.560;2023-02-15T07:03:36;101187.00;;;4.90
20092;BMP180;10205;49.678;6.560;2023-02-15T07:06:06;101182.00;;;4.90
20092;BMP180;10205;49.678;6.560;2023-02-15T07:08:37;101188.00;;;4.90
20092;BMP180;10205;49.678;6.560;2023-02-15T07:11:06;101178.00;;;4.90
20092;BMP180;10205;49.678;6.560;2023-02-15T07:13:51;101168.00;;;4.90
20092;BMP180;10205;49.678;6.560;2023-02-15T07:16:19;101185.00;;;4.90
20092;BMP180;10205;49.678;6.560;2023-02-15T07:18:46;101171.00;;;4.90
20092;BMP180;10205;49.678;6.560;2023-02-15T07:21:13;101180.00;;;4.90
20092;BMP180;10205;49.678;6.560;2023-02-15T07:23:42;101194.00;;;4.90
20092;BMP180;10205;49.678;6.560;2023-02-15T07:26:09;101172.00;;;4.90
20092;BMP180;10205;49.678;6.560;2023-02-15T07:28:36;101175.00;;;4.90
20092;BMP180;10205;49.678;6.560;2023-02-15T07:31:05;101172.00;;;4.90
20092;BMP180;10205;49.678;6.560;2023-02-15T07:33:32;101171.00;;;4.90
20092;BMP180;10205;49.678;6.560;2023-02-15T07:36:03;101169.00;;;4.90
20092;BMP180;10205;49.678;6.560;2023-02-15T07:38:33;101171.00;;;4.90
20092;BMP180;10205;49.678;6.560;2023-02-15T07:41:04;101171.00;;;4.90
20092;BMP180;10205;49.678;6.560;2023-02-15T07:43:34;101164.00;;;4.90
20092;BMP180;10205;49.678;6.560;2023-02-15T07:46:05;101174.00;;;4.90
20092;BMP180;10205;49.678;6.560;2023-02-15T07:48:33;101170.00;;;4.90
20092;BMP180;10205;49.678;6.560;2023-02-15T07:51:01;101165.00;;;4.90
20092;BMP180;10205;49.678;6.560;2023-02-15T07:53:29;101166.00;;;4.90
20092;BMP180;10205;49.678;6.560;2023-02-15T07:56:04;101169.00;;;4.90
20092;BMP180;10205;49.678;6.560;2023-02-15T07:58:32;101155.00;;;4.90
20092;BMP180;10205;49.678;6.560;2023-02-15T08:01:22;101163.00;;;4.80
20092;BMP180;10205;49.678;6.560;2023-02-15T08:03:50;101162.00;;;4.90
20092;BMP180;10205;49.678;6.560;2023-02-15T08:06:17;101161.00;;;4.90
20092;BMP180;10205;49.678;6.560;2023-02-15T08:08:44;101166.00;;;4.90
20092;BMP180;10205;49.678;6.560;2023-02-15T08:11:19;101161.00;;;4.90
20092;BMP180;10205;49.678;6.560;2023-02-15T08:13:56;101164.00;;;4.90
20092;BMP180;10205;49.678;6.560;2023-02-15T08:16:31;101144.00;;;4.90
20092;BMP180;10205;49.678;6.560;2023-02-15T08:19:02;101165.00;;;4.90
20092;BMP180;10205;49.678;6.560;2023-02-15T08:21:34;101165.00;;;4.90
20092;BMP180;10205;49.678;6.560;2023-02-15T08:24:03;101161.00;;;4.90
20092;BMP180;10205;49.678;6.560;2023-02-15T08:26:33;101163.00;;;4.90
20092;BMP180;10205;49.678;6.560;2023-02-15T08:29:01;101167.00;;;4.90
20092;BMP180;10205;49.678;6.560;2023-02-15T08:31:29;101170.00;;;5.00
20092;BMP180;10205;49.678;6.560;2023-02-15T08:33:57;101163.00;;;5.00
20092;BMP180;10205;49.678;6.560;2023-02-15T08:36:27;101160.00;;;5.00
20092;BMP180;10205;49.678;6.560;2023-02-15T08:38:57;101162.00;;;5.00
20092;BMP180;10205;49.678;6.560;2023-02-15T08:41:26;101163.00;;;5.00
20092;BMP180;10205;49.678;6.560;2023-02-15T08:43:59;101175.00;;;5.00
20092;BMP180;10205;49.678;6.560;2023-02-15T08:46:30;101174.00;;;5.00
20092;BMP180;10205;49.678;6.560;2023-02-15T08:49:00;101184.00;;;5.00
20092;BMP180;10205;49.678;6.560;2023-02-15T08:51:30;101170.00;;;5.00
20092;BMP180;10205;49.678;6.560;2023-02-15T08:54:02;101168.00;;;5.00
20092;BMP180;10205;49.678;6.560;2023-02-15T08:56:33;101187.00;;;5.00
20092;BMP180;10205;49.678;6.560;2023-02-15T08:59:03;101176.00;;;5.10
20092;BMP180;10205;49.678;6.560;2023-02-15T09:01:34;101164.00;;;5.10
20092;BMP180;10205;49.678;6.560;2023-02-15T09:04:04;101172.00;;;5.10
20092;BMP180;10205;49.678;6.560;2023-02-15T09:06:38;101161.00;;;5.10
20092;BMP180;10205;49.678;6.560;2023-02-15T09:09:06;101184.00;;;5.10
20092;BMP180;10205;49.678;6.560;2023-02-15T09:11:38;101171.00;;;5.10
20092;BMP180;10205;49.678;6.560;2023-02-15T09:14:10;101178.00;;;5.10
20092;BMP180;10205;49.678;6.560;2023-02-15T09:16:41;101177.00;;;5.20
20092;BMP180;10205;49.678;6.560;2023-02-15T09:19:10;101161.00;;;5.20
20092;BMP180;10205;49.678;6.560;2023-02-15T09:21:38;101160.00;;;5.20
20092;BMP180;10205;49.678;6.560;2023-02-15T09:24:10;101158.00;;;5.20
20092;BMP180;10205;49.678;6.560;2023-02-15T09:26:40;101159.00;;;5.20
20092;BMP180;10205;49.678;6.560;2023-02-15T09:29:11;101158.00;;;5.20
20092;BMP180;10205;49.678;6.560;2023-02-15T09:31:44;101162.00;;;5.20
20092;BMP180;10205;49.678;6.560;2023-02-15T09:34:13;101158.00;;;5.20
20092;BMP180;10205;49.678;6.560;2023-02-15T09:36:42;101153.00;;;5.30
20092;BMP180;10205;49.678;6.560;2023-02-15T09:39:12;101165.00;;;5.30
20092;BMP180;10205;49.678;6.560;2023-02-15T09:42:16;101163.00;;;5.30
20092;BMP180;10205;49.678;6.560;2023-02-15T09:45:06;101174.00;;;5.30
20092;BMP180;10205;49.678;6.560;2023-02-15T09:48:14;101171.00;;;5.30
20092;BMP180;10205;49.678;6.560;2023-02-15T09:50:59;101167.00;;;5.30
20092;BMP180;10205;49.678;6.560;2023-02-15T09:53:49;101172.00;;;5.30
20092;BMP180;10205;49.678;6.560;2023-02-15T09:56:31;101185.00;;;5.40
20092;BMP180;10205;49.678;6.560;2023-02-15T09:59:14;101178.00;;;5.40
20092;BMP180;10205;49.678;6.560;2023-02-15T10:01:59;101178.00;;;5.40
20092;BMP180;10205;49.678;6.560;2023-02-15T10:04:57;101178.00;;;5.50
20092;BMP180;10205;49.678;6.560;2023-02-15T10:07:48;101168.00;;;5.50
20092;BMP180;10205;49.678;6.560;2023-02-15T10:10:34;101147.00;;;5.50
20092;BMP180;10205;49.678;6.560;2023-02-15T10:13:26;101168.00;;;5.50
20092;BMP180;10205;49.678;6.560;2023-02-15T10:16:15;101166.00;;;5.50
20092;BMP180;10205;49.678;6.560;2023-02-15T10:19:04;101160.00;;;5.60
20092;BMP180;10205;49.678;6.560;2023-02-15T10:21:50;101161.00;;;5.60
20092;BMP180;10205;49.678;6.560;2023-02-15T10:24:42;101157.00;;;5.60
20092;BMP180;10205;49.678;6.560;2023-02-15T10:27:13;101149.00;;;5.60
20092;BMP180;10205;49.678;6.560;2023-02-15T10:29:55;101161.00;;;5.70
20092;BMP180;10205;49.678;6.560;2023-02-15T10:32:28;101156.00;;;5.70
20092;BMP180;10205;49.678;6.560;2023-02-15T10:35:08;101147.00;;;5.70
20092;BMP180;10205;49.678;6.560;2023-02-15T10:38:05;101142.00;;;5.70
20092;BMP180;10205;49.678;6.560;2023-02-15T10:40:48;101139.00;;;5.70
20092;BMP180;10205;49.678;6.560;2023-02-15T10:43:47;101139.00;;;5.80
20092;BMP180;10205;49.678;6.560;2023-02-15T10:46:42;101138.00;;;5.80
20092;BMP180;10205;49.678;6.560;2023-02-15T10:49:44;101125.00;;;5.80
20092;BMP180;10205;49.678;6.560;2023-02-15T10:52:29;101130.00;;;5.80
20092;BMP180;10205;49.678;6.560;2023-02-15T10:55:09;101132.00;;;5.80
20092;BMP180;10205;49.678;6.560;2023-02-15T10:57:59;101137.00;;;5.90
20092;BMP180;10205;49.678;6.560;2023-02-15T11:00:40;101126.00;;;5.90
20092;BMP180;10205;49.678;6.560;2023-02-15T11:03:29;101123.00;;;5.90
20092;BMP180;10205;49.678;6.560;2023-02-15T11:06:04;101119.00;;;6.00
20092;BMP180;10205;49.678;6.560;2023-02-15T11:08:40;101118.00;;;6.00
20092;BMP180;10205;49.678;6.560;2023-02-15T11:11:12;101120.00;;;6.00
20092;BMP180;10205;49.678;6.560;2023-02-15T11:13:48;101110.00;;;6.00
20092;BMP180;10205;49.678;6.560;2023-02-15T11:16:22;101126.00;;;6.10
20092;BMP180;10205;49.678;6.560;2023-02-15T11:18:58;101101.00;;;6.10
20092;BMP180;10205;49.678;6.560;2023-02-15T11:21:36;101099.00;;;6.20
20092;BMP180;10205;49.678;6.560;2023-02-15T11:24:12;101101.00;;;6.20
20092;BMP180;10205;49.678;6.560;2023-02-15T11:26:45;101091.00;;;6.20
20092;BMP180;10205;49.678;6.560;2023-02-15T11:29:20;101085.00;;;6.30
20092;BMP180;10205;49.678;6.560;2023-02-15T11:31:54;101079.00;;;6.30
20092;BMP180;10205;49.678;6.560;2023-02-15T11:34:31;101085.00;;;6.40
20092;BMP180;10205;49.678;6.560;2023-02-15T11:37:08;101078.00;;;6.40
20092;BMP180;10205;49.678;6.560;2023-02-15T11:39:38;101074.00;;;6.50
20092;BMP180;10205;49.678;6.560;2023-02-15T11:42:13;101072.00;;;6.50
20092;BMP180;10205;49.678;6.560;2023-02-15T11:44:50;101074.00;;;6.60
20092;BMP180;10205;49.678;6.560;2023-02-15T11:47:19;101069.00;;;6.70
20092;BMP180;10205;49.678;6.560;2023-02-15T11:49:46;101058.00;;;6.70
20092;BMP180;10205;49.678;6.560;2023-02-15T11:52:17;101057.00;;;6.80
20092;BMP180;10205;49.678;6.560;2023-02-15T11:54:49;101059.00;;;6.90
20092;BMP180;10205;49.678;6.560;2023-02-15T11:57:26;101052.00;;;6.90
20092;BMP180;10205;49.678;6.560;2023-02-15T12:00:02;101056.00;;;7.00
20092;BMP180;10205;49.678;6.560;2023-02-15T12:02:37;101048.00;;;7.10
20092;BMP180;10205;49.678;6.560;2023-02-15T12:05:12;101044.00;;;7.10
20092;BMP180;10205;49.678;6.560;2023-02-15T12:07:46;101043.00;;;7.10
20092;BMP180;10205;49.678;6.560;2023-02-15T12:10:24;101042.00;;;7.20
20092;BMP180;10205;49.678;6.560;2023-02-15T12:13:13;101039.00;;;7.20
20092;BMP180;10205;49.678;6.560;2023-02-15T12:15:46;101045.00;;;7.30
20092;BMP180;10205;49.678;6.560;2023-02-15T12:18:31;101035.00;;;7.30
20092;BMP180;10205;49.678;6.560;2023-02-15T12:21:03;101034.00;;;7.40
20092;BMP180;10205;49.678;6.560;2023-02-15T12:23:32;101024.00;;;7.40
20092;BMP180;10205;49.678;6.560;2023-02-15T12:26:02;101028.00;;;7.50
20092;BMP180;10205;49.678;6.560;2023-02-15T12:28:34;101015.00;;;7.60
20092;BMP180;10205;49.678;6.560;2023-02-15T12:31:09;101021.00;;;7.60
20092;BMP180;10205;49.678;6.560;2023-02-15T12:33:45;101030.00;;;7.70
20092;BMP180;10205;49.678;6.560;2023-02-15T12:36:17;101014.00;;;7.70
20092;BMP180;10205;49.678;6.560;2023-02-15T12:39:04;101013.00;;;7.80
20092;BMP180;10205;49.678;6.560;2023-02-15T12:41:33;101007.00;;;7.80
20092;BMP180;10205;49.678;6.560;2023-02-15T12:44:16;100994.00;;;7.90
20092;BMP180;10205;49.678;6.560;2023-02-15T12:46:58;101002.00;;;8.00
20092;BMP180;10205;49.678;6.560;2023-02-15T12:49:26;100998.00;;;8.00
20092;BMP180;10205;49.678;6.560;2023-02-15T12:51:56;100994.00;;;8.10
20092;BMP180;10205;49.678;6.560;2023-02-15T12:54:42;100994.00;;;8.10
20092;BMP180;10205;49.678;6.560;2023-02-15T12:57:32;100991.00;;;8.20
20092;BMP180;10205;49.678;6.560;2023-02-15T13:00:02;100987.00;;;8.20
20092;BMP180;10205;49.678;6.560;2023-02-15T13:02:41;100992.00;;;8.20
20092;BMP180;10205;49.678;6.560;2023-02-15T13:05:20;100982.00;;;8.30
20092;BMP180;10205;49.678;6.560;2023-02-15T13:07:54;100961.00;;;8.30
20092;BMP180;10205;49.678;6.560;2023-02-15T13:10:25;100957.00;;;8.40
20092;BMP180;10205;49.678;6.560;2023-02-15T13:12:55;100957.00;;;8.40
20092;BMP180;10205;49.678;6.560;2023-02-15T13:15:34;100959.00;;;8.50
20092;BMP180;10205;49.678;6.560;2023-02-15T13:18:04;100943.00;;;8.50
20092;BMP180;10205;49.678;6.560;2023-02-15T13:20:36;100951.00;;;8.60
20092;BMP180;10205;49.678;6.560;2023-02-15T13:23:24;100954.00;;;8.60
20092;BMP180;10205;49.678;6.560;2023-02-15T13:25:55;100949.00;;;8.60
20092;BMP180;10205;49.678;6.560;2023-02-15T13:28:34;100950.00;;;8.70
20092;BMP180;10205;49.678;6.560;2023-02-15T13:31:13;100934.00;;;8.70
20092;BMP180;10205;49.678;6.560;2023-02-15T13:33:45;100940.00;;;8.80
20092;BMP180;10205;49.678;6.560;2023-02-15T13:36:23;100938.00;;;8.80
20092;BMP180;10205;49.678;6.560;2023-02-15T13:39:06;100937.00;;;8.80
20092;BMP180;10205;49.678;6.560;2023-02-15T13:41:50;100938.00;;;8.90
20092;BMP180;10205;49.678;6.560;2023-02-15T13:44:43;100929.00;;;8.90
20092;BMP180;10205;49.678;6.560;2023-02-15T13:47:22;100922.00;;;8.90
20092;BMP180;10205;49.678;6.560;2023-02-15T13:50:29;100927.00;;;9.00
20092;BMP180;10205;49.678;6.560;2023-02-15T13:53:22;100928.00;;;9.00
20092;BMP180;10205;49.678;6.560;2023-02-15T13:55:57;100922.00;;;9.00
20092;BMP180;10205;49.678;6.560;2023-02-15T13:59:01;100920.00;;;9.10
20092;BMP180;10205;49.678;6.560;2023-02-15T14:01:42;100918.00;;;9.10
20092;BMP180;10205;49.678;6.560;2023-02-15T14:04:42;100919.00;;;9.10
20092;BMP180;10205;49.678;6.560;2023-02-15T14:07:53;100926.00;;;9.20
20092;BMP180;10205;49.678;6.560;2023-02-15T14:10:37;100895.00;;;9.20
20092;BMP180;10205;49.678;6.560;2023-02-15T14:13:36;100907.00;;;9.30
20092;BMP180;10205;49.678;6.560;2023-02-15T14:16:17;100913.00;;;9.30
20092;BMP180;10205;49.678;6.560;2023-02-15T14:18:57;100911.00;;;9.30
20092;BMP180;10205;49.678;6.560;2023-02-15T14:21:31;100908.00;;;9.40
20092;BMP180;10205;49.678;6.560;2023-02-15T14:24:24;100904.00;;;9.40
20092;BMP180;10205;49.678;6.560;2023-02-15T14:27:05;100909.00;;;9.40
20092;BMP180;10205;49.678;6.560;2023-02-15T14:29:48;100905.00;;;9.50
20092;BMP180;10205;49.678;6.560;2023-02-15T14:32:26;100895.00;;;9.50
20092;BMP180;10205;49.678;6.560;2023-02-15T14:34:58;100902.00;;;9.50
20092;BMP180;10205;49.678;6.560;2023-02-15T14:37:41;100900.00;;;9.60
20092;BMP180;10205;49.678;6.560;2023-02-15T14:40:19;100904.00;;;9.60
20092;BMP180;10205;49.678;6.560;2023-02-15T14:43:17;100914.00;;;9.60
20092;BMP180;10205;49.678;6.560;2023-02-15T14:45:53;100899.00;;;9.60
20092;BMP180;10205;49.678;6.560;2023-02-15T14:48:28;100894.00;;;9.70
20092;BMP180;10205;49.678;6.560;2023-02-15T14:50:59;100890.00;;;9.70
20092;BMP180;10205;49.678;6.560;2023-02-15T14:53:45;100895.00;;;9.70
20092;BMP180;10205;49.678;6.560;2023-02-15T14:56:29;100903.00;;;9.80
20092;BMP180;10205;49.678;6.560;2023-02-15T14:59:16;100899.00;;;9.80
20092;BMP180;10205;49.678;6.560;2023-02-15T15:01:57;100897.00;;;9.80